sensor_id;sensor_type;location;lat;lon;timestamp;pressure;altitude;pressure_sealevel;temperature;humidity
42727;BME280;28372;56.832;60.658;2022-11-24T00:01:23;98043.13;;;-9.79;82.45
42727;BME280;28372;56.832;60.658;2022-11-24T00:06:24;98056.91;;;-9.84;84.28
42727;BME280;28372;56.832;60.658;2022-11-24T00:08:53;98048.97;;;-9.89;84.79
42727;BME280;28372;56.832;60.658;2022-11-24T00:11:23;98042.56;;;-9.81;85.13
42727;BME280;28372;56.832;60.658;2022-11-24T00:13:51;98049.16;;;-9.78;84.90
42727;BME280;28372;56.832;60.658;2022-11-24T00:16:24;98041.78;;;-9.82;84.88
42727;BME280;28372;56.832;60.658;2022-11-24T00:18:54;98045.84;;;-9.74;84.53
42727;BME280;28372;56.832;60.658;2022-11-24T00:21:23;98039.00;;;-9.75;83.70
42727;BME280;28372;56.832;60.658;2022-11-24T00:23:51;98046.66;;;-9.73;83.67
42727;BME280;28372;56.832;60.658;2022-11-24T00:26:24;98039.47;;;-9.78;83.65
42727;BME280;28372;56.832;60.658;2022-11-24T00:28:54;98037.56;;;-9.83;83.68
42727;BME280;28372;56.832;60.658;2022-11-24T00:31:23;98042.56;;;-9.81;83.94
42727;BME280;28372;56.832;60.658;2022-11-24T00:33:53;98025.50;;;-9.84;84.42
42727;BME280;28372;56.832;60.658;2022-11-24T00:36:23;98029.59;;;-9.76;84.79
42727;BME280;28372;56.832;60.658;2022-11-24T00:38:59;98024.13;;;-9.74;84.72
42727;BME280;28372;56.832;60.658;2022-11-24T00:41:28;98029.44;;;-9.69;84.10
42727;BME280;28372;56.832;60.658;2022-11-24T00:43:56;98025.72;;;-9.73;83.56
42727;BME280;28372;56.832;60.658;2022-11-24T00:46:24;98021.44;;;-9.62;83.63
42727;BME280;28372;56.832;60.658;2022-11-24T00:48:52;97987.44;;;-9.91;82.75
42727;BME280;28372;56.832;60.658;2022-11-24T00:51:23;98017.69;;;-9.67;82.97
42727;BME280;28372;56.832;60.658;2022-11-24T00:53:51;98008.41;;;-9.74;82.46
42727;BME280;28372;56.832;60.658;2022-11-24T00:56:19;98019.78;;;-9.69;83.33
42727;BME280;28372;56.832;60.658;2022-11-24T00:58:46;98006.75;;;-9.64;83.50
42727;BME280;28372;56.832;60.658;2022-11-24T01:01:19;98020.47;;;-9.73;81.87
42727;BME280;28372;56.832;60.658;2022-11-24T01:03:48;97999.38;;;-9.67;82.26
42727;BME280;28372;56.832;60.658;2022-11-24T01:06:18;97989.28;;;-9.75;83.14
42727;BME280;28372;56.832;60.658;2022-11-24T01:08:47;97990.31;;;-9.76;81.97
42727;BME280;28372;56.832;60.658;2022-11-24T01:11:18;97992.72;;;-9.74;82.48
42727;BME280;28372;56.832;60.658;2022-11-24T01:13:48;98003.97;;;-9.74;83.66
42727;BME280;28372;56.832;60.658;2022-11-24T01:16:24;97994.91;;;-9.83;84.20
42727;BME280;28372;56.832;60.658;2022-11-24T01:18:53;97988.78;;;-9.89;83.36
42727;BME280;28372;56.832;60.658;2022-11-24T01:21:22;97980.00;;;-9.83;83.82
42727;BME280;28372;56.832;60.658;2022-11-24T01:23:50;97981.72;;;-9.88;84.39
42727;BME280;28372;56.832;60.658;2022-11-24T01:26:19;98001.25;;;-9.79;83.91
42727;BME280;28372;56.832;60.658;2022-11-24T01:28:54;97975.00;;;-9.84;83.57
42727;BME280;28372;56.832;60.658;2022-11-24T01:31:25;97967.50;;;-9.92;83.72
42727;BME280;28372;56.832;60.658;2022-11-24T01:33:58;97987.06;;;-9.83;83.27
42727;BME280;28372;56.832;60.658;2022-11-24T01:36:40;97971.72;;;-9.91;83.07
42727;BME280;28372;56.832;60.658;2022-11-24T01:39:10;97959.28;;;-10.13;83.25
42727;BME280;28372;56.832;60.658;2022-11-24T01:41:49;97979.22;;;-9.83;82.93
42727;BME280;28372;56.832;60.658;2022-11-24T01:44:28;97963.31;;;-9.93;82.74
42727;BME280;28372;56.832;60.658;2022-11-24T01:47:26;97969.75;;;-9.84;83.33
42727;BME280;28372;56.832;60.658;2022-11-24T01:49:59;97974.28;;;-9.79;82.16
42727;BME280;28372;56.832;60.658;2022-11-24T01:52:44;97973.09;;;-9.89;82.46
42727;BME280;28372;56.832;60.658;2022-11-24T01:55:24;97982.38;;;-9.81;81.20
42727;BME280;28372;56.832;60.658;2022-11-24T01:58:06;97963.88;;;-9.91;83.36
42727;BME280;28372;56.832;60.658;2022-11-24T02:00:38;97970.00;;;-9.86;84.00
42727;BME280;28372;56.832;60.658;2022-11-24T02:03:17;97973.97;;;-9.83;84.10
42727;BME280;28372;56.832;60.658;2022-11-24T02:06:08;97972.44;;;-9.79;83.23
42727;BME280;28372;56.832;60.658;2022-11-24T02:09:15;97933.00;;;-10.06;83.04
42727;BME280;28372;56.832;60.658;2022-11-24T02:11:46;97971.56;;;-9.85;83.59
42727;BME280;28372;56.832;60.658;2022-11-24T02:14:15;97955.78;;;-10.19;83.59
42727;BME280;28372;56.832;60.658;2022-11-24T02:16:47;97964.44;;;-9.89;84.28
42727;BME280;28372;56.832;60.658;2022-11-24T02:21:56;97969.41;;;-9.88;84.07
42727;BME280;28372;56.832;60.658;2022-11-24T02:24:42;97966.25;;;-9.90;83.47
42727;BME280;28372;56.832;60.658;2022-11-24T02:27:13;97984.84;;;-10.03;82.77
42727;BME280;28372;56.832;60.658;2022-11-24T02:29:40;97949.69;;;-9.95;83.81
42727;BME280;28372;56.832;60.658;2022-11-24T02:32:09;97978.59;;;-10.02;82.53
42727;BME280;28372;56.832;60.658;2022-11-24T02:34:37;97945.34;;;-10.02;83.59
42727;BME280;28372;56.832;60.658;2022-11-24T02:37:05;97964.00;;;-9.98;83.35
42727;BME280;28372;56.832;60.658;2022-11-24T02:39:32;97963.84;;;-10.08;83.22
42727;BME280;28372;56.832;60.658;2022-11-24T02:42:07;97938.69;;;-10.09;83.26
42727;BME280;28372;56.832;60.658;2022-11-24T02:44:43;97955.81;;;-10.02;83.02
42727;BME280;28372;56.832;60.658;2022-11-24T02:47:12;97935.22;;;-9.98;83.26
42727;BME280;28372;56.832;60.658;2022-11-24T02:49:42;97945.13;;;-10.00;82.21
42727;BME280;28372;56.832;60.658;2022-11-24T02:52:13;97951.41;;;-10.01;83.24
42727;BME280;28372;56.832;60.658;2022-11-24T02:54:56;97930.28;;;-10.11;83.20
42727;BME280;28372;56.832;60.658;2022-11-24T02:57:24;97941.72;;;-10.01;82.44
42727;BME280;28372;56.832;60.658;2022-11-24T02:59:54;97936.84;;;-9.97;82.42
42727;BME280;28372;56.832;60.658;2022-11-24T03:02:22;97956.28;;;-10.05;82.98
42727;BME280;28372;56.832;60.658;2022-11-24T03:04:50;97938.69;;;-10.09;83.22
42727;BME280;28372;56.832;60.658;2022-11-24T03:07:17;97928.00;;;-10.08;83.65
42727;BME280;28372;56.832;60.658;2022-11-24T03:09:45;97939.25;;;-10.07;82.75
42727;BME280;28372;56.832;60.658;2022-11-24T03:12:13;97926.97;;;-10.07;82.38
42727;BME280;28372;56.832;60.658;2022-11-24T03:14:41;97930.72;;;-10.03;82.27
42727;BME280;28372;56.832;60.658;2022-11-24T03:17:08;97919.66;;;-10.05;81.87
42727;BME280;28372;56.832;60.658;2022-11-24T03:19:36;97922.88;;;-10.03;81.22
42727;BME280;28372;56.832;60.658;2022-11-24T03:22:04;97929.47;;;-10.12;81.33
42727;BME280;28372;56.832;60.658;2022-11-24T03:24:32;97920.69;;;-10.06;81.87
42727;BME280;28372;56.832;60.658;2022-11-24T03:27:00;97929.25;;;-10.10;82.81
42727;BME280;28372;56.832;60.658;2022-11-24T03:29:28;97930.28;;;-10.11;84.37
42727;BME280;28372;56.832;60.658;2022-11-24T03:31:56;97927.56;;;-10.17;84.81
42727;BME280;28372;56.832;60.658;2022-11-24T03:34:24;97943.44;;;-10.06;85.15
42727;BME280;28372;56.832;60.658;2022-11-24T03:36:52;97927.09;;;-10.13;84.76
42727;BME280;28372;56.832;60.658;2022-11-24T03:39:19;97917.44;;;-10.13;85.14
42727;BME280;28372;56.832;60.658;2022-11-24T03:41:47;97929.72;;;-10.13;83.64
42727;BME280;28372;56.832;60.658;2022-11-24T03:44:17;97924.91;;;-10.05;84.67
42727;BME280;28372;56.832;60.658;2022-11-24T03:46:44;97949.94;;;-10.09;84.46
42727;BME280;28372;56.832;60.658;2022-11-24T03:49:12;97939.06;;;-10.18;84.31
42727;BME280;28372;56.832;60.658;2022-11-24T03:51:39;97911.88;;;-10.17;85.13
42727;BME280;28372;56.832;60.658;2022-11-24T03:54:07;97930.31;;;-10.23;85.45
42727;BME280;28372;56.832;60.658;2022-11-24T03:56:34;97910.16;;;-10.11;85.39
42727;BME280;28372;56.832;60.658;2022-11-24T03:59:02;97927.41;;;-10.10;85.46
42727;BME280;28372;56.832;60.658;2022-11-24T04:01:29;97914.69;;;-10.06;85.47
42727;BME280;28372;56.832;60.658;2022-11-24T04:03:57;97924.34;;;-10.07;84.39
42727;BME280;28372;56.832;60.658;2022-11-24T04:06:24;97918.19;;;-10.01;84.72
42727;BME280;28372;56.832;60.658;2022-11-24T04:08:52;97926.38;;;-9.97;84.65
42727;BME280;28372;56.832;60.658;2022-11-24T04:11:19;97902.00;;;-9.98;84.78
42727;BME280;28372;56.832;60.658;2022-11-24T04:14:05;97902.19;;;-9.87;85.21
42727;BME280;28372;56.832;60.658;2022-11-24T04:16:39;97916.59;;;-9.85;83.97
42727;BME280;28372;56.832;60.658;2022-11-24T04:19:07;97898.28;;;-9.85;81.97
42727;BME280;28372;56.832;60.658;2022-11-24T04:21:34;97902.97;;;-9.87;83.24
42727;BME280;28372;56.832;60.658;2022-11-24T04:24:02;97904.81;;;-9.87;83.47
42727;BME280;28372;56.832;60.658;2022-11-24T04:26:29;97905.69;;;-9.82;84.09
42727;BME280;28372;56.832;60.658;2022-11-24T04:28:57;97899.41;;;-9.81;83.10
42727;BME280;28372;56.832;60.658;2022-11-24T04:31:24;97917.97;;;-9.82;81.95
42727;BME280;28372;56.832;60.658;2022-11-24T04:33:52;97902.81;;;-9.97;83.21
42727;BME280;28372;56.832;60.658;2022-11-24T04:36:19;97903.47;;;-9.90;83.93
42727;BME280;28372;56.832;60.658;2022-11-24T04:38:47;97912.44;;;-9.86;83.59
42727;BME280;28372;56.832;60.658;2022-11-24T04:41:34;97894.09;;;-9.86;83.43
42727;BME280;28372;56.832;60.658;2022-11-24T04:44:02;97903.84;;;-9.98;84.74
42727;BME280;28372;56.832;60.658;2022-11-24T04:46:29;97920.00;;;-10.01;85.99
42727;BME280;28372;56.832;60.658;2022-11-24T04:48:57;97926.25;;;-10.02;86.65
42727;BME280;28372;56.832;60.658;2022-11-24T04:51:25;97911.59;;;-10.03;87.30
42727;BME280;28372;56.832;60.658;2022-11-24T04:53:52;97912.41;;;-10.03;86.68
42727;BME280;28372;56.832;60.658;2022-11-24T04:56:20;97935.47;;;-10.00;86.08
42727;BME280;28372;56.832;60.658;2022-11-24T04:58:48;97929.81;;;-10.08;86.26
42727;BME280;28372;56.832;60.658;2022-11-24T05:01:15;97919.81;;;-10.11;86.54
42727;BME280;28372;56.832;60.658;2022-11-24T05:03:43;97926.94;;;-10.24;86.63
42727;BME280;28372;56.832;60.658;2022-11-24T05:06:10;97913.38;;;-10.21;86.09
42727;BME280;28372;56.832;60.658;2022-11-24T05:08:38;97935.13;;;-10.32;85.35
42727;BME280;28372;56.832;60.658;2022-11-24T05:11:06;97913.13;;;-10.19;86.71
42727;BME280;28372;56.832;60.658;2022-11-24T05:13:33;97929.97;;;-10.15;85.47
42727;BME280;28372;56.832;60.658;2022-11-24T05:16:01;97940.69;;;-10.28;84.81
42727;BME280;28372;56.832;60.658;2022-11-24T05:18:29;97920.03;;;-10.13;84.80
42727;BME280;28372;56.832;60.658;2022-11-24T05:20:57;97906.88;;;-10.18;84.27
42727;BME280;28372;56.832;60.658;2022-11-24T05:23:24;97934.72;;;-10.12;83.57
42727;BME280;28372;56.832;60.658;2022-11-24T05:25:52;97912.53;;;-10.09;83.04
42727;BME280;28372;56.832;60.658;2022-11-24T05:28:20;97920.38;;;-10.09;83.06
42727;BME280;28372;56.832;60.658;2022-11-24T05:30:47;97921.63;;;-10.12;82.52
42727;BME280;28372;56.832;60.658;2022-11-24T05:33:15;97924.84;;;-10.39;83.16
42727;BME280;28372;56.832;60.658;2022-11-24T05:35:45;97926.78;;;-10.17;84.43
42727;BME280;28372;56.832;60.658;2022-11-24T05:38:13;97920.41;;;-10.21;84.04
42727;BME280;28372;56.832;60.658;2022-11-24T05:40:41;97928.38;;;-10.16;84.22
42727;BME280;28372;56.832;60.658;2022-11-24T05:43:15;97910.44;;;-10.24;85.17
42727;BME280;28372;56.832;60.658;2022-11-24T05:45:43;97930.91;;;-10.04;84.40
42727;BME280;28372;56.832;60.658;2022-11-24T05:48:13;97923.88;;;-10.04;84.09
42727;BME280;28372;56.832;60.658;2022-11-24T05:50:41;97910.84;;;-10.16;83.66
42727;BME280;28372;56.832;60.658;2022-11-24T05:53:12;97933.00;;;-10.06;84.82
42727;BME280;28372;56.832;60.658;2022-11-24T05:55:39;97909.09;;;-10.10;84.84
42727;BME280;28372;56.832;60.658;2022-11-24T05:58:08;97897.00;;;-9.99;83.96
42727;BME280;28372;56.832;60.658;2022-11-24T06:00:36;97913.94;;;-9.90;83.28
42727;BME280;28372;56.832;60.658;2022-11-24T06:03:04;97907.34;;;-9.92;83.88
42727;BME280;28372;56.832;60.658;2022-11-24T06:05:32;97908.06;;;-9.97;83.37
42727;BME280;28372;56.832;60.658;2022-11-24T06:07:59;97891.97;;;-9.89;84.48
42727;BME280;28372;56.832;60.658;2022-11-24T06:10:27;97911.38;;;-9.85;85.05
42727;BME280;28372;56.832;60.658;2022-11-24T06:12:54;97904.66;;;-9.81;85.59
42727;BME280;28372;56.832;60.658;2022-11-24T06:15:22;97912.59;;;-9.75;87.05
42727;BME280;28372;56.832;60.658;2022-11-24T06:17:53;97897.22;;;-9.72;87.26
42727;BME280;28372;56.832;60.658;2022-11-24T06:20:23;97914.50;;;-9.71;87.08
42727;BME280;28372;56.832;60.658;2022-11-24T06:22:57;97897.63;;;-9.63;87.89
42727;BME280;28372;56.832;60.658;2022-11-24T06:25:25;97903.97;;;-9.59;87.75
42727;BME280;28372;56.832;60.658;2022-11-24T06:27:53;97907.47;;;-9.53;88.66
42727;BME280;28372;56.832;60.658;2022-11-24T06:30:21;97893.16;;;-9.45;87.93
42727;BME280;28372;56.832;60.658;2022-11-24T06:32:48;97900.06;;;-9.39;88.27
42727;BME280;28372;56.832;60.658;2022-11-24T06:35:20;97897.94;;;-9.42;88.26
42727;BME280;28372;56.832;60.658;2022-11-24T06:37:48;97900.63;;;-9.37;87.60
42727;BME280;28372;56.832;60.658;2022-11-24T06:40:15;97908.00;;;-9.34;88.30
42727;BME280;28372;56.832;60.658;2022-11-24T06:42:48;97898.22;;;-9.22;89.91
42727;BME280;28372;56.832;60.658;2022-11-24T06:45:16;97904.28;;;-9.21;89.65
42727;BME280;28372;56.832;60.658;2022-11-24T06:47:44;97903.78;;;-9.18;89.96
42727;BME280;28372;56.832;60.658;2022-11-24T06:50:11;97908.78;;;-9.17;91.38
42727;BME280;28372;56.832;60.658;2022-11-24T06:52:39;97914.88;;;-9.11;91.49
42727;BME280;28372;56.832;60.658;2022-11-24T06:55:06;97909.97;;;-9.07;92.14
42727;BME280;28372;56.832;60.658;2022-11-24T06:57:34;97905.03;;;-9.04;92.25
42727;BME280;28372;56.832;60.658;2022-11-24T07:00:03;97898.34;;;-8.94;92.33
42727;BME280;28372;56.832;60.658;2022-11-24T07:02:31;97916.38;;;-8.98;91.90
42727;BME280;28372;56.832;60.658;2022-11-24T07:04:59;97909.13;;;-8.91;90.64
42727;BME280;28372;56.832;60.658;2022-11-24T07:07:29;97898.81;;;-8.98;89.58
42727;BME280;28372;56.832;60.658;2022-11-24T07:09:56;97899.06;;;-8.99;89.55
42727;BME280;28372;56.832;60.658;2022-11-24T07:12:32;97893.13;;;-8.94;90.30
42727;BME280;28372;56.832;60.658;2022-11-24T07:15:01;97844.97;;;-9.27;89.86
42727;BME280;28372;56.832;60.658;2022-11-24T07:17:49;97886.69;;;-9.04;91.32
42727;BME280;28372;56.832;60.658;2022-11-24T07:20:17;97897.25;;;-8.99;90.58
42727;BME280;28372;56.832;60.658;2022-11-24T07:22:44;97903.03;;;-8.97;90.24
42727;BME280;28372;56.832;60.658;2022-11-24T07:25:12;97912.41;;;-9.01;91.18
42727;BME280;28372;56.832;60.658;2022-11-24T07:27:40;97892.16;;;-9.05;92.26
42727;BME280;28372;56.832;60.658;2022-11-24T07:30:08;97908.03;;;-8.95;92.57
42727;BME280;28372;56.832;60.658;2022-11-24T07:32:35;97905.16;;;-8.93;92.96
42727;BME280;28372;56.832;60.658;2022-11-24T07:35:03;97907.47;;;-8.97;92.51
42727;BME280;28372;56.832;60.658;2022-11-24T07:37:31;97907.31;;;-8.90;92.76
42727;BME280;28372;56.832;60.658;2022-11-24T07:39:58;97917.31;;;-8.87;92.43
42727;BME280;28372;56.832;60.658;2022-11-24T07:42:26;97908.34;;;-8.91;92.80
42727;BME280;28372;56.832;60.658;2022-11-24T07:44:54;97902.63;;;-8.88;92.73
42727;BME280;28372;56.832;60.658;2022-11-24T07:47:21;97896.28;;;-8.92;92.13
42727;BME280;28372;56.832;60.658;2022-11-24T07:49:48;97906.84;;;-8.87;92.64
42727;BME280;28372;56.832;60.658;2022-11-24T07:52:16;97887.47;;;-8.86;92.64
42727;BME280;28372;56.832;60.658;2022-11-24T07:54:43;97894.25;;;-8.85;93.03
42727;BME280;28372;56.832;60.658;2022-11-24T07:57:11;97892.81;;;-8.76;94.01
42727;BME280;28372;56.832;60.658;2022-11-24T07:59:38;97891.38;;;-8.67;94.53
42727;BME280;28372;56.832;60.658;2022-11-24T08:02:05;97893.50;;;-8.64;95.17
42727;BME280;28372;56.832;60.658;2022-11-24T08:04:35;97898.59;;;-8.52;94.93
42727;BME280;28372;56.832;60.658;2022-11-24T08:07:03;97860.63;;;-8.71;95.08
42727;BME280;28372;56.832;60.658;2022-11-24T08:09:30;97894.50;;;-8.43;95.26
42727;BME280;28372;56.832;60.658;2022-11-24T08:11:57;97886.66;;;-8.37;95.78
42727;BME280;28372;56.832;60.658;2022-11-24T08:14:25;97885.69;;;-8.31;96.04
42727;BME280;28372;56.832;60.658;2022-11-24T08:16:52;97887.88;;;-8.23;95.66
42727;BME280;28372;56.832;60.658;2022-11-24T08:19:20;97884.28;;;-8.17;95.83
42727;BME280;28372;56.832;60.658;2022-11-24T08:21:51;97889.47;;;-8.22;96.86
42727;BME280;28372;56.832;60.658;2022-11-24T08:24:18;97889.03;;;-8.14;95.32
42727;BME280;28372;56.832;60.658;2022-11-24T08:26:45;97888.28;;;-8.09;95.60
42727;BME280;28372;56.832;60.658;2022-11-24T08:29:13;97887.53;;;-8.04;95.33
42727;BME280;28372;56.832;60.658;2022-11-24T08:31:41;97886.50;;;-8.03;94.95
42727;BME280;28372;56.832;60.658;2022-11-24T08:34:09;97879.13;;;-8.06;95.23
42727;BME280;28372;56.832;60.658;2022-11-24T08:36:36;97881.78;;;-8.01;95.31
42727;BME280;28372;56.832;60.658;2022-11-24T08:39:04;97875.50;;;-8.00;95.04
42727;BME280;28372;56.832;60.658;2022-11-24T08:41:31;97875.34;;;-7.88;96.32
42727;BME280;28372;56.832;60.658;2022-11-24T08:43:59;97873.53;;;-7.88;96.71
42727;BME280;28372;56.832;60.658;2022-11-24T08:46:26;97875.19;;;-7.77;96.64
42727;BME280;28372;56.832;60.658;2022-11-24T08:48:54;97880.00;;;-7.68;97.76
42727;BME280;28372;56.832;60.658;2022-11-24T08:51:23;97876.41;;;-7.57;97.16
42727;BME280;28372;56.832;60.658;2022-11-24T08:53:59;97874.41;;;-7.45;97.88
42727;BME280;28372;56.832;60.658;2022-11-24T08:56:30;97861.28;;;-7.40;98.96
42727;BME280;28372;56.832;60.658;2022-11-24T08:58:58;97867.09;;;-7.37;100.00
42727;BME280;28372;56.832;60.658;2022-11-24T09:01:27;97869.22;;;-7.34;100.00
42727;BME280;28372;56.832;60.658;2022-11-24T09:03:55;97858.97;;;-7.36;100.00
42727;BME280;28372;56.832;60.658;2022-11-24T09:06:25;97857.97;;;-7.25;100.00
42727;BME280;28372;56.832;60.658;2022-11-24T09:08:53;97866.63;;;-7.24;100.00
42727;BME280;28372;56.832;60.658;2022-11-24T09:11:22;97857.22;;;-7.20;100.00
42727;BME280;28372;56.832;60.658;2022-11-24T09:13:50;97864.00;;;-7.24;100.00
42727;BME280;28372;56.832;60.658;2022-11-24T09:16:23;97847.44;;;-7.30;100.00
42727;BME280;28372;56.832;60.658;2022-11-24T09:19:03;97865.13;;;-7.15;100.00
42727;BME280;28372;56.832;60.658;2022-11-24T09:21:33;97864.63;;;-7.12;100.00
42727;BME280;28372;56.832;60.658;2022-11-24T09:24:05;97849.16;;;-7.08;100.00
42727;BME280;28372;56.832;60.658;2022-11-24T09:26:34;97853.63;;;-7.03;100.00
42727;BME280;28372;56.832;60.658;2022-11-24T09:29:04;97861.03;;;-6.95;100.00
42727;BME280;28372;56.832;60.658;2022-11-24T09:31:35;97852.88;;;-6.94;100.00
42727;BME280;28372;56.832;60.658;2022-11-24T09:34:04;97859.69;;;-6.98;100.00
42727;BME280;28372;56.832;60.658;2022-11-24T09:36:33;97872.06;;;-6.93;100.00
42727;BME280;28372;56.832;60.658;2022-11-24T09:39:01;97855.22;;;-6.97;98.88
42727;BME280;28372;56.832;60.658;2022-11-24T09:47:58;97841.59;;;-6.89;97.13
42727;BME280;28372;56.832;60.658;2022-11-24T09:50:23;97838.16;;;-6.95;96.15
42727;BME280;28372;56.832;60.658;2022-11-24T09:53:06;97842.06;;;-6.97;97.69
42727;BME280;28372;56.832;60.658;2022-11-24T09:55:53;97855.56;;;-6.89;97.83
42727;BME280;28372;56.832;60.658;2022-11-24T10:03:53;97855.53;;;-6.94;100.00
42727;BME280;28372;56.832;60.658;2022-11-24T10:14:48;97848.75;;;-6.79;97.99
42727;BME280;28372;56.832;60.658;2022-11-24T10:20:27;97849.28;;;-6.72;98.77
42727;BME280;28372;56.832;60.658;2022-11-24T10:25:58;97849.03;;;-6.71;100.00
42727;BME280;28372;56.832;60.658;2022-11-24T10:28:34;97844.28;;;-6.74;99.63
42727;BME280;28372;56.832;60.658;2022-11-24T10:31:31;97848.03;;;-6.64;100.00
42727;BME280;28372;56.832;60.658;2022-11-24T10:34:04;97849.31;;;-6.67;99.64
42727;BME280;28372;56.832;60.658;2022-11-24T10:39:22;97842.25;;;-6.61;99.76
42727;BME280;28372;56.832;60.658;2022-11-24T10:42:06;97843.28;;;-6.62;98.38
42727;BME280;28372;56.832;60.658;2022-11-24T10:44:38;97837.25;;;-6.58;99.52
42727;BME280;28372;56.832;60.658;2022-11-24T10:47:20;97828.31;;;-6.62;99.02
42727;BME280;28372;56.832;60.658;2022-11-24T10:49:55;97839.88;;;-6.63;99.57
42727;BME280;28372;56.832;60.658;2022-11-24T10:52:26;97837.22;;;-6.68;99.72
42727;BME280;28372;56.832;60.658;2022-11-24T10:54:57;97841.69;;;-6.68;99.82
42727;BME280;28372;56.832;60.658;2022-11-24T10:57:36;97844.84;;;-6.66;99.72
42727;BME280;28372;56.832;60.658;2022-11-24T11:02:49;97830.38;;;-6.64;95.96
42727;BME280;28372;56.832;60.658;2022-11-24T11:14:27;97831.72;;;-6.51;96.46
42727;BME280;28372;56.832;60.658;2022-11-24T11:16:52;97832.03;;;-6.47;97.20
42727;BME280;28372;56.832;60.658;2022-11-24T11:19:35;97829.38;;;-6.47;96.54
42727;BME280;28372;56.832;60.658;2022-11-24T11:22:29;97827.81;;;-6.48;97.24
42727;BME280;28372;56.832;60.658;2022-11-24T11:25:06;97828.34;;;-6.46;97.52
42727;BME280;28372;56.832;60.658;2022-11-24T11:27:41;97825.19;;;-6.43;97.49
42727;BME280;28372;56.832;60.658;2022-11-24T11:33:02;97818.06;;;-6.43;99.09
42727;BME280;28372;56.832;60.658;2022-11-24T11:35:50;97822.31;;;-6.31;100.00
42727;BME280;28372;56.832;60.658;2022-11-24T11:38:18;97825.22;;;-6.28;100.00
42727;BME280;28372;56.832;60.658;2022-11-24T11:40:49;97828.09;;;-6.24;100.00
42727;BME280;28372;56.832;60.658;2022-11-24T11:43:38;97819.69;;;-6.26;100.00
42727;BME280;28372;56.832;60.658;2022-11-24T11:46:13;97831.00;;;-6.26;100.00
42727;BME280;28372;56.832;60.658;2022-11-24T11:48:44;97837.06;;;-6.20;100.00
42727;BME280;28372;56.832;60.658;2022-11-24T11:56:48;97835.53;;;-6.06;100.00
42727;BME280;28372;56.832;60.658;2022-11-24T12:04:52;97845.81;;;-6.04;100.00
42727;BME280;28372;56.832;60.658;2022-11-24T12:12:51;97838.16;;;-6.00;100.00
42727;BME280;28372;56.832;60.658;2022-11-24T12:15:39;97848.16;;;-6.03;100.00
42727;BME280;28372;56.832;60.658;2022-11-24T12:24:30;97842.88;;;-6.08;100.00
42727;BME280;28372;56.832;60.658;2022-11-24T12:27:23;97829.22;;;-6.10;100.00
42727;BME280;28372;56.832;60.658;2022-11-24T12:30:01;97843.94;;;-6.09;100.00
42727;BME280;28372;56.832;60.658;2022-11-24T12:35:38;97847.38;;;-6.03;100.00
42727;BME280;28372;56.832;60.658;2022-11-24T12:44:34;97854.75;;;-6.00;100.00
42727;BME280;28372;56.832;60.658;2022-11-24T12:47:14;97857.38;;;-6.05;100.00
42727;BME280;28372;56.832;60.658;2022-11-24T12:52:39;97850.00;;;-6.13;100.00
42727;BME280;28372;56.832;60.658;2022-11-24T12:55:17;97859.47;;;-6.12;100.00
42727;BME280;28372;56.832;60.658;2022-11-24T12:58:04;97866.34;;;-6.11;100.00
42727;BME280;28372;56.832;60.658;2022-11-24T13:08:30;97867.88;;;-6.31;100.00
42727;BME280;28372;56.832;60.658;2022-11-24T13:13:58;97853.34;;;-6.49;100.00
42727;BME280;28372;56.832;60.658;2022-11-24T13:16:27;97867.31;;;-6.38;99.10
42727;BME280;28372;56.832;60.658;2022-11-24T13:19:12;97872.03;;;-6.40;98.02
42727;BME280;28372;56.832;60.658;2022-11-24T13:26:54;97868.13;;;-6.27;98.83
42727;BME280;28372;56.832;60.658;2022-11-24T13:29:45;97866.56;;;-6.23;99.68
42727;BME280;28372;56.832;60.658;2022-11-24T13:37:19;97866.84;;;-6.20;100.00
42727;BME280;28372;56.832;60.658;2022-11-24T13:53:25;97862.91;;;-6.17;100.00
42727;BME280;28372;56.832;60.658;2022-11-24T13:56:08;97875.53;;;-6.14;99.93
42727;BME280;28372;56.832;60.658;2022-11-24T13:59:14;97871.31;;;-6.15;98.48
42727;BME280;28372;56.832;60.658;2022-11-24T14:01:43;97870.53;;;-6.15;97.70
42727;BME280;28372;56.832;60.658;2022-11-24T14:04:16;97870.53;;;-6.15;97.31
42727;BME280;28372;56.832;60.658;2022-11-24T14:07:04;97874.22;;;-6.11;96.67
42727;BME280;28372;56.832;60.658;2022-11-24T14:09:42;97870.28;;;-6.14;96.51
42727;BME280;28372;56.832;60.658;2022-11-24T14:12:23;97878.97;;;-6.18;96.56
42727;BME280;28372;56.832;60.658;2022-11-24T14:14:52;97875.75;;;-6.26;95.69
42727;BME280;28372;56.832;60.658;2022-11-24T14:17:26;97873.66;;;-6.29;95.50
42727;BME280;28372;56.832;60.658;2022-11-24T14:19:56;97881.56;;;-6.24;94.34
42727;BME280;28372;56.832;60.658;2022-11-24T14:22:31;97885.75;;;-6.28;94.24
42727;BME280;28372;56.832;60.658;2022-11-24T14:25:01;97884.97;;;-6.28;94.56
42727;BME280;28372;56.832;60.658;2022-11-24T14:27:31;97890.50;;;-6.25;94.21
42727;BME280;28372;56.832;60.658;2022-11-24T14:32:33;97888.38;;;-6.33;94.11
42727;BME280;28372;56.832;60.658;2022-11-24T14:35:01;97887.63;;;-6.28;93.99
42727;BME280;28372;56.832;60.658;2022-11-24T14:37:41;97894.97;;;-6.30;95.12
42727;BME280;28372;56.832;60.658;2022-11-24T14:43:35;97901.28;;;-6.26;95.23
42727;BME280;28372;56.832;60.658;2022-11-24T14:46:04;97901.56;;;-6.28;95.90
42727;BME280;28372;56.832;60.658;2022-11-24T14:48:44;97904.97;;;-6.27;95.70
42727;BME280;28372;56.832;60.658;2022-11-24T14:54:11;97905.53;;;-6.25;96.48
42727;BME280;28372;56.832;60.658;2022-11-24T14:56:39;97909.97;;;-6.26;97.64
42727;BME280;28372;56.832;60.658;2022-11-24T14:59:23;97921.56;;;-6.22;98.75
42727;BME280;28372;56.832;60.658;2022-11-24T15:01:51;97923.72;;;-6.18;98.50
42727;BME280;28372;56.832;60.658;2022-11-24T15:04:20;97929.22;;;-6.15;100.00
42727;BME280;28372;56.832;60.658;2022-11-24T15:07:17;97915.31;;;-6.05;100.00
42727;BME280;28372;56.832;60.658;2022-11-24T15:09:51;97912.44;;;-5.98;100.00
42727;BME280;28372;56.832;60.658;2022-11-24T15:12:26;97920.56;;;-5.90;100.00
42727;BME280;28372;56.832;60.658;2022-11-24T15:15:01;97924.50;;;-5.92;100.00